Time;durP1;ratioP1;P1;durP2;ratioP2;P2;SDS_P1;SDS_P2;PMS_P1;PMS_P2;Temp;Humidity;BMP_temperature;BMP_pressure;BME280_temperature;BME280_humidity;BME280_pressure;Samples;Min_cycle;Max_cycle;Signal;HPM_P1;HPM_P2
2022/07/08 00:03:04;;;;;;;6.00;3.60;;;;;;;20.04;56.79;99222.55;235790;1203;139441;-58
2022/07/08 00:08:07;;;;;;;6.30;3.60;;;;;;;20.04;56.87;99226.13;235784;1203;138700;-58
2022/07/08 00:13:10;;;;;;;4.30;3.30;;;;;;;19.99;56.89;99231.30;235833;1202;138287;-59
2022/07/08 00:18:13;;;;;;;5.50;3.40;;;;;;;19.98;56.90;99238.79;235772;1203;139454;-61
2022/07/08 00:23:16;;;;;;;5.80;3.50;;;;;;;19.96;56.77;99236.67;235799;1203;138752;-60
2022/07/08 00:28:19;;;;;;;4.90;3.30;;;;;;;19.97;56.78;99237.84;236041;1200;138887;-58
2022/07/08 00:33:22;;;;;;;6.00;3.50;;;;;;;19.95;56.70;99231.21;235808;1203;138258;-62
2022/07/08 00:38:25;;;;;;;3.50;3.10;;;;;;;19.95;56.64;99232.67;235718;1203;138844;-61
2022/07/08 00:43:39;;;;;;;5.40;3.00;;;;;;;19.95;56.55;99226.64;235809;1202;139628;-60
2022/07/08 00:48:44;;;;;;;4.60;3.30;;;;;;;20.06;56.49;99227.40;235682;1203;139506;-62
2022/07/08 00:53:51;;;;;;;6.80;3.10;;;;;;;20.14;56.40;99225.20;235815;1203;138665;-61
2022/07/08 00:58:55;;;;;;;4.90;2.90;;;;;;;20.16;56.25;99225.58;235881;1201;138825;-61
2022/07/08 01:03:59;;;;;;;4.60;2.90;;;;;;;20.15;56.09;99222.57;235641;1202;138776;-60
2022/07/08 01:09:04;;;;;;;4.20;2.80;;;;;;;20.15;56.05;99228.17;235771;1201;138336;-60
2022/07/08 01:14:07;;;;;;;4.70;3.10;;;;;;;20.12;56.04;99230.04;235830;1202;140580;-61
2022/07/08 01:19:10;;;;;;;6.00;3.30;;;;;;;20.05;55.87;99232.01;235782;1203;138621;-61
2022/07/08 01:24:13;;;;;;;3.80;2.90;;;;;;;19.99;55.93;99231.30;235718;1203;139538;-59
2022/07/08 01:29:16;;;;;;;7.60;3.60;;;;;;;19.92;55.88;99233.30;235945;1201;138552;-60
2022/07/08 01:34:19;;;;;;;3.90;2.90;;;;;;;19.85;56.07;99228.02;235917;1201;138841;-59
2022/07/08 01:39:22;;;;;;;4.80;3.00;;;;;;;19.82;56.18;99227.78;235765;1203;139198;-60
2022/07/08 01:44:25;;;;;;;8.90;3.30;;;;;;;19.76;56.37;99228.14;235825;1203;138514;-60
2022/07/08 01:49:28;;;;;;;6.50;3.00;;;;;;;19.74;56.52;99235.23;235775;1203;138331;-60
2022/07/08 01:54:31;;;;;;;7.40;3.60;;;;;;;19.78;56.61;99237.73;235786;1203;139113;-59
2022/07/08 01:59:34;;;;;;;5.90;3.50;;;;;;;19.82;56.63;99239.43;235755;1204;139151;-60
2022/07/08 02:04:37;;;;;;;5.10;3.40;;;;;;;19.83;56.85;99234.85;235943;1203;138873;-57
2022/07/08 02:09:41;;;;;;;7.50;3.60;;;;;;;19.85;57.07;99243.32;235700;1203;138894;-59
2022/07/08 02:15:01;;;;;;;5.50;4.00;;;;;;;19.84;57.11;99247.73;235832;1203;138482;-58
2022/07/08 02:20:07;;;;;;;6.60;3.90;;;;;;;19.82;57.25;99254.89;235888;1201;139096;-58
2022/07/08 02:25:10;;;;;;;5.20;4.30;;;;;;;19.79;57.25;99253.48;235755;1203;139408;-59
2022/07/08 02:30:14;;;;;;;6.70;4.10;;;;;;;19.74;57.30;99255.60;235764;1203;139419;-58
2022/07/08 02:35:17;;;;;;;8.30;4.60;;;;;;;19.68;57.47;99256.49;235802;1203;138658;-57
2022/07/08 02:40:20;;;;;;;8.90;4.60;;;;;;;19.64;57.53;99268.02;235906;1203;138147;-57
2022/07/08 02:45:23;;;;;;;8.10;4.80;;;;;;;19.62;57.73;99273.55;235796;1203;138850;-56
2022/07/08 02:50:26;;;;;;;8.90;4.50;;;;;;;19.73;57.90;99291.16;235742;1203;139386;-57
2022/07/08 02:55:29;;;;;;;9.80;5.10;;;;;;;19.76;57.95;99289.72;235807;1203;138992;-58
2022/07/08 03:00:33;;;;;;;8.40;5.50;;;;;;;19.76;57.98;99295.75;235757;1202;138793;-58
2022/07/08 03:05:36;;;;;;;8.60;5.20;;;;;;;19.71;58.16;99294.91;235793;1203;139128;-57
2022/07/08 03:10:39;;;;;;;10.70;5.90;;;;;;;19.72;58.30;99297.15;235887;1201;141792;-58
2022/07/08 03:15:42;;;;;;;9.90;6.00;;;;;;;19.70;58.22;99303.45;235882;1200;138921;-55
2022/07/08 03:20:45;;;;;;;10.40;6.10;;;;;;;19.67;58.35;99308.59;235769;1204;139181;-57
2022/07/08 03:25:48;;;;;;;8.50;4.80;;;;;;;19.62;58.55;99312.29;235753;1201;138285;-58
2022/07/08 03:30:51;;;;;;;10.80;5.30;;;;;;;19.59;58.59;99320.13;235662;1203;140896;-59
2022/07/08 03:35:55;;;;;;;8.60;5.30;;;;;;;19.59;58.70;99324.48;235834;1202;138975;-57
2022/07/08 03:46:20;;;;;;;13.60;5.80;;;;;;;19.67;58.97;99337.86;235322;1200;138753;-57
2022/07/08 03:51:24;;;;;;;7.80;5.90;;;;;;;19.69;59.02;99347.48;235784;1203;139122;-58
2022/07/08 03:56:27;;;;;;;9.60;5.60;;;;;;;19.67;58.97;99353.21;235766;1203;138705;-58
2022/07/08 04:01:30;;;;;;;8.50;6.20;;;;;;;19.67;58.97;99355.77;235764;1202;138524;-59
2022/07/08 04:06:33;;;;;;;17.50;5.70;;;;;;;19.66;58.92;99354.05;235701;1202;139240;-60
2022/07/08 04:11:37;;;;;;;9.60;5.50;;;;;;;19.68;58.88;99355.20;235679;1202;138484;-60
2022/07/08 04:16:40;;;;;;;11.00;4.60;;;;;;;19.67;58.84;99355.41;235922;1203;139843;-58
2022/07/08 04:21:42;;;;;;;8.90;5.10;;;;;;;19.72;58.81;99364.30;235783;1203;139949;-60
2022/07/08 04:26:45;;;;;;;12.10;5.00;;;;;;;19.70;58.84;99367.20;235789;1202;138770;-60
2022/07/08 04:31:49;;;;;;;9.90;5.30;;;;;;;19.75;58.75;99374.30;235804;1201;140524;-60
2022/07/08 04:36:52;;;;;;;7.50;4.80;;;;;;;19.79;58.81;99377.33;235840;1202;139368;-59
2022/07/08 04:41:55;;;;;;;7.10;4.20;;;;;;;19.84;58.61;99383.02;235770;1203;138784;-61
2022/07/08 04:46:57;;;;;;;8.80;5.00;;;;;;;19.86;58.47;99381.88;235828;1203;139027;-60
2022/07/08 04:52:01;;;;;;;6.50;4.20;;;;;;;19.85;58.27;99378.36;235975;1204;139411;-59
2022/07/08 04:57:05;;;;;;;11.30;4.00;;;;;;;19.80;58.10;99377.02;235937;1201;139252;-59
2022/07/08 05:02:08;;;;;;;9.30;3.70;;;;;;;19.78;58.02;99381.95;235769;1203;139922;-60
2022/07/08 05:07:11;;;;;;;10.40;4.10;;;;;;;19.85;58.05;99392.62;235780;1203;138742;-61
2022/07/08 05:12:14;;;;;;;11.30;4.30;;;;;;;19.89;57.94;99392.08;235701;1202;140047;-59
2022/07/08 05:17:17;;;;;;;12.50;4.00;;;;;;;19.91;57.87;99396.90;235731;1203;139574;-59
2022/07/08 05:22:20;;;;;;;8.60;3.70;;;;;;;19.93;57.70;99401.18;235987;1201;139191;-60
2022/07/08 05:27:23;;;;;;;6.80;3.70;;;;;;;19.95;57.58;99399.62;235826;1201;138485;-60
2022/07/08 05:32:27;;;;;;;9.20;3.80;;;;;;;19.99;57.50;99403.51;235847;1199;138936;-59
2022/07/08 05:37:38;;;;;;;8.10;3.30;;;;;;;20.02;57.42;99406.23;235806;1203;140312;-58
2022/07/08 05:42:42;;;;;;;9.90;3.50;;;;;;;20.16;57.55;99413.60;235596;1202;140056;-58
2022/07/08 05:47:45;;;;;;;41.50;31.70;;;;;;;20.32;57.42;99410.75;235821;1203;138999;-58
2022/07/08 05:52:48;;;;;;;5.80;3.80;;;;;;;20.44;57.39;99406.27;235756;1203;139374;-58
2022/07/08 05:57:51;;;;;;;21.20;15.60;;;;;;;20.53;56.99;99410.78;235967;1203;138785;-58
2022/07/08 06:02:54;;;;;;;6.30;3.80;;;;;;;20.58;56.85;99415.86;235701;1201;138962;-57
2022/07/08 06:07:57;;;;;;;8.70;3.50;;;;;;;20.64;56.65;99414.77;235787;1202;138680;-58
2022/07/08 06:13:00;;;;;;;32.20;23.10;;;;;;;20.74;56.66;99418.08;235947;1203;139512;-58
2022/07/08 06:18:03;;;;;;;8.10;4.50;;;;;;;20.81;56.57;99423.77;235793;1201;138839;-59
2022/07/08 06:23:06;;;;;;;10.60;4.10;;;;;;;20.83;56.71;99425.73;235686;1202;139259;-56
2022/07/08 06:28:09;;;;;;;10.90;4.30;;;;;;;20.90;56.75;99423.21;235606;1202;139357;-56
2022/07/08 06:33:12;;;;;;;28.00;20.50;;;;;;;20.99;56.64;99436.17;235644;1203;139369;-58
2022/07/08 06:38:15;;;;;;;9.30;4.30;;;;;;;21.06;56.48;99436.41;235720;1203;141375;-58
2022/07/08 06:43:18;;;;;;;5.10;3.80;;;;;;;21.07;56.49;99433.06;235670;1203;140817;-58
2022/07/08 06:48:25;;;;;;;8.90;4.00;;;;;;;21.09;56.11;99435.77;235734;1203;138350;-59
2022/07/08 06:54:34;;;;;;;8.20;3.70;;;;;;;21.12;56.20;99442.81;235732;1203;138961;-58
2022/07/08 06:58:51;;;;;;;9.90;3.50;;;;;;;21.18;56.05;99447.08;235793;1203;138472;-56
2022/07/08 07:03:54;;;;;;;146.00;110.70;;;;;;;21.27;55.93;99453.63;235842;1203;139717;-58
2022/07/08 07:08:58;;;;;;;11.90;6.80;;;;;;;21.35;55.79;99451.77;235851;1202;139536;-54
2022/07/08 07:14:01;;;;;;;9.40;3.40;;;;;;;21.44;55.80;99457.33;235660;1200;138873;-58
2022/07/08 07:19:04;;;;;;;8.80;3.50;;;;;;;21.54;55.62;99452.19;235897;1200;139124;-60
2022/07/08 07:24:07;;;;;;;36.60;26.60;;;;;;;21.61;55.44;99452.56;235757;1203;138934;-58
2022/07/08 07:29:10;;;;;;;11.10;5.80;;;;;;;21.70;55.42;99452.58;235692;1203;139307;-59
2022/07/08 07:34:13;;;;;;;146.40;111.80;;;;;;;21.77;55.42;99463.03;235855;1202;138841;-59
2022/07/08 07:39:16;;;;;;;45.50;37.40;;;;;;;21.83;55.57;99458.09;235745;1203;139334;-58
2022/07/08 07:44:19;;;;;;;7.40;4.30;;;;;;;21.93;55.33;99462.42;235703;1202;139391;-58
2022/07/08 07:49:22;;;;;;;7.70;3.30;;;;;;;22.00;55.02;99467.40;235774;1203;138556;-58
2022/07/08 07:54:25;;;;;;;8.10;2.70;;;;;;;22.04;54.80;99465.92;235713;1203;139209;-59
2022/07/08 07:59:31;;;;;;;7.70;2.30;;;;;;;22.15;54.40;99469.98;235722;1202;139224;-59
2022/07/08 08:04:34;;;;;;;5.20;2.10;;;;;;;22.27;53.80;99471.34;235829;1202;137930;-59
2022/07/08 08:09:37;;;;;;;3.50;1.80;;;;;;;22.37;53.67;99468.96;235752;1203;138918;-58
2022/07/08 08:14:40;;;;;;;3.00;2.40;;;;;;;22.49;53.43;99472.21;235684;1203;138882;-59
2022/07/08 08:19:42;;;;;;;3.90;2.20;;;;;;;22.55;53.34;99471.30;235763;1203;138870;-59
2022/07/08 08:24:45;;;;;;;3.30;2.10;;;;;;;22.70;53.14;99470.05;235699;1203;138869;-59
2022/07/08 08:29:49;;;;;;;4.60;1.90;;;;;;;22.74;52.83;99472.55;235791;1203;138648;-59
2022/07/08 08:34:52;;;;;;;3.90;1.80;;;;;;;22.80;52.65;99468.98;235840;1202;138103;-59
2022/07/08 08:39:55;;;;;;;6.00;1.90;;;;;;;22.88;52.51;99459.85;235953;1202;138596;-58
2022/07/08 08:44:59;;;;;;;8.50;2.00;;;;;;;22.95;52.31;99464.28;235813;1200;138496;-58
2022/07/08 08:55:29;;;;;;;2.70;2.00;;;;;;;23.15;52.06;99468.52;235613;1201;138456;-57
2022/07/08 09:00:34;;;;;;;116.60;91.70;;;;;;;23.21;52.01;99472.45;235483;1202;138573;-54
2022/07/08 09:05:40;;;;;;;7.50;5.10;;;;;;;23.28;51.75;99469.61;235685;1203;139117;-58
2022/07/08 09:10:43;;;;;;;304.80;271.10;;;;;;;23.36;51.64;99463.67;235810;1202;139446;-59
2022/07/08 09:15:48;;;;;;;30.30;24.60;;;;;;;23.43;51.52;99462.96;235849;1202;139138;-59
2022/07/08 09:20:53;;;;;;;6.60;5.00;;;;;;;23.47;51.22;99464.52;235771;1202;138910;-58
2022/07/08 09:25:58;;;;;;;3.80;1.60;;;;;;;23.51;50.78;99467.89;235602;1203;138683;-59
2022/07/08 09:31:03;;;;;;;5.30;1.90;;;;;;;23.53;50.49;99464.40;235805;1201;139543;-57
2022/07/08 09:36:08;;;;;;;8.50;1.80;;;;;;;23.59;50.10;99464.64;235728;1201;139335;-58
2022/07/08 09:41:20;;;;;;;14.90;9.70;;;;;;;23.60;49.95;99465.23;235698;1202;138399;-57
2022/07/08 09:46:35;;;;;;;16.60;10.80;;;;;;;23.43;50.13;99469.85;235774;1202;138907;-59
2022/07/08 09:51:38;;;;;;;15.00;4.90;;;;;;;23.13;51.08;99481.95;235679;1201;139855;-56
2022/07/08 09:56:41;;;;;;;8.90;3.20;;;;;;;22.82;52.12;99480.12;235738;1202;139160;-57
2022/07/08 10:01:44;;;;;;;69.50;53.60;;;;;;;22.53;52.83;99476.30;235809;1202;139168;-59
2022/07/08 10:06:47;;;;;;;21.20;6.20;;;;;;;22.29;53.37;99475.03;235710;1203;140672;-59
2022/07/08 10:11:51;;;;;;;14.50;3.50;;;;;;;22.05;54.21;99478.02;235761;1203;139615;-57
2022/07/08 10:16:55;;;;;;;10.30;3.20;;;;;;;21.87;54.93;99479.30;235717;1202;139159;-59
2022/07/08 10:21:58;;;;;;;10.50;3.20;;;;;;;21.80;55.61;99494.52;235884;1202;139023;-58
2022/07/08 10:27:02;;;;;;;6.40;3.50;;;;;;;21.76;55.95;99496.89;235853;1200;139556;-57
2022/07/08 10:32:25;;;;;;;9.60;4.00;;;;;;;21.75;56.13;99505.92;235687;1203;139295;-59
2022/07/08 10:37:56;;;;;;;7.20;3.70;;;;;;;21.71;56.17;99497.80;235725;1202;139615;-59
2022/07/08 10:43:06;;;;;;;9.80;4.20;;;;;;;21.62;56.20;99500.75;235718;1203;138989;-57
2022/07/08 10:48:09;;;;;;;11.00;6.40;;;;;;;21.49;56.33;99489.48;235647;1203;138856;-57
2022/07/08 10:53:12;;;;;;;7.70;3.80;;;;;;;21.38;56.59;99484.06;235811;1203;139138;-55
2022/07/08 10:58:15;;;;;;;5.70;3.90;;;;;;;21.33;56.85;99483.89;235843;1202;138536;-54
2022/07/08 11:03:18;;;;;;;5.80;3.20;;;;;;;21.29;57.16;99475.84;235748;1202;138645;-55
2022/07/08 11:08:28;;;;;;;62.30;50.90;;;;;;;21.42;57.46;99479.54;235639;1202;138879;-60
2022/07/08 11:13:33;;;;;;;5.80;3.80;;;;;;;21.56;57.39;99473.68;235763;1203;139742;-58
2022/07/08 11:18:36;;;;;;;5.80;3.00;;;;;;;21.56;57.08;99477.25;235739;1203;139496;-58
2022/07/08 11:23:46;;;;;;;5.80;3.20;;;;;;;21.52;57.00;99470.13;235355;1201;138940;-58
2022/07/08 11:28:49;;;;;;;4.50;3.40;;;;;;;21.49;57.31;99465.15;235814;1201;139602;-58
2022/07/08 11:33:52;;;;;;;7.00;3.00;;;;;;;21.50;57.44;99461.57;235793;1203;138511;-58
2022/07/08 11:38:55;;;;;;;4.30;2.70;;;;;;;21.46;57.47;99456.91;235710;1202;138546;-59
2022/07/08 11:43:58;;;;;;;64.10;50.60;;;;;;;21.45;57.44;99455.02;235708;1204;138991;-58
2022/07/08 11:49:04;;;;;;;8.80;4.80;;;;;;;21.54;57.74;99459.84;235580;1201;139315;-57
2022/07/08 11:54:07;;;;;;;9.50;6.50;;;;;;;21.68;57.84;99456.50;235727;1203;138652;-58
2022/07/08 11:59:10;;;;;;;10.60;5.10;;;;;;;21.93;58.09;99456.17;235702;1203;139619;-58
2022/07/08 12:04:13;;;;;;;102.00;90.90;;;;;;;22.10;58.11;99446.61;235827;1202;139111;-57
2022/07/08 12:09:19;;;;;;;9.70;7.80;;;;;;;22.33;58.36;99444.09;235777;1202;139371;-56
2022/07/08 12:14:23;;;;;;;7.10;4.00;;;;;;;22.72;58.21;99449.68;235879;1201;138736;-57
2022/07/08 12:19:34;;;;;;;8.20;4.50;;;;;;;22.87;57.61;99468.91;235741;1203;138372;-57
2022/07/08 12:24:39;;;;;;;5.40;3.80;;;;;;;22.86;57.10;99482.00;235879;1201;138339;-56
2022/07/08 12:29:43;;;;;;;3.80;1.90;;;;;;;22.64;56.33;99504.68;235752;1202;138804;-57
2022/07/08 12:34:51;;;;;;;6.30;2.20;;;;;;;22.00;55.96;99515.98;235763;1203;140573;-57
2022/07/08 12:39:54;;;;;;;69.60;58.80;;;;;;;21.46;56.66;99519.91;235885;1203;138628;-59
2022/07/08 12:44:57;;;;;;;7.70;3.70;;;;;;;21.23;57.44;99518.42;235794;1202;139028;-59
2022/07/08 12:50:05;;;;;;;3.30;2.30;;;;;;;21.06;57.62;99515.80;235816;1201;139174;-56
2022/07/08 12:55:08;;;;;;;6.90;5.30;;;;;;;20.95;58.02;99520.62;235775;1200;138981;-59
2022/07/08 13:00:12;;;;;;;6.90;2.40;;;;;;;20.93;58.33;99529.08;235747;1203;138945;-59
2022/07/08 13:05:15;;;;;;;4.30;2.40;;;;;;;20.86;58.39;99526.59;235818;1202;139085;-58
2022/07/08 13:10:18;;;;;;;2.70;2.30;;;;;;;20.78;58.83;99521.05;235776;1203;139252;-57
2022/07/08 13:15:21;;;;;;;4.90;2.50;;;;;;;20.66;59.38;99522.52;235751;1202;139123;-57
2022/07/08 13:20:24;;;;;;;2.90;2.30;;;;;;;20.64;59.84;99520.80;235784;1203;139327;-60
2022/07/08 13:25:27;;;;;;;3.20;2.20;;;;;;;20.77;60.38;99519.54;235777;1203;139446;-59
2022/07/08 13:30:30;;;;;;;5.20;2.90;;;;;;;20.96;60.63;99515.28;235775;1202;139247;-58
2022/07/08 13:35:33;;;;;;;8.10;2.90;;;;;;;21.44;61.33;99500.67;235756;1202;138757;-57
2022/07/08 13:40:36;;;;;;;7.60;2.80;;;;;;;21.93;61.21;99500.60;235843;1202;138487;-58
2022/07/08 13:45:39;;;;;;;7.10;3.00;;;;;;;21.99;60.41;99500.41;235815;1202;138468;-59
2022/07/08 13:50:42;;;;;;;5.30;2.70;;;;;;;21.95;59.91;99493.36;235848;1202;138649;-59
2022/07/08 13:55:45;;;;;;;3.30;2.80;;;;;;;22.12;60.10;99475.04;235807;1202;139435;-58
2022/07/08 14:00:48;;;;;;;5.30;3.20;;;;;;;22.06;59.65;99503.23;235761;1202;138558;-58
2022/07/08 14:05:51;;;;;;;3.90;2.40;;;;;;;21.86;59.51;99547.21;235804;1202;139041;-58
2022/07/08 14:10:54;;;;;;;4.20;1.70;;;;;;;21.56;59.38;99553.64;235749;1203;138859;-57
2022/07/08 14:15:59;;;;;;;2.80;1.80;;;;;;;21.32;59.34;99549.67;235893;1203;138473;-59
2022/07/08 14:21:03;;;;;;;3.50;1.70;;;;;;;21.09;59.69;99551.00;235729;1203;138947;-58
2022/07/08 14:26:06;;;;;;;3.80;1.70;;;;;;;20.89;59.87;99549.02;235706;1203;138737;-58
2022/07/08 14:31:08;;;;;;;2.80;1.90;;;;;;;20.67;60.23;99540.80;235751;1203;138445;-59
2022/07/08 14:36:12;;;;;;;2.20;1.70;;;;;;;20.45;60.50;99540.42;235728;1202;138854;-57
2022/07/08 14:41:15;;;;;;;3.80;1.70;;;;;;;20.28;60.66;99543.31;235781;1203;139781;-58
2022/07/08 14:46:19;;;;;;;4.40;2.30;;;;;;;20.17;61.01;99550.10;235880;1202;138558;-59
2022/07/08 14:51:22;;;;;;;3.30;2.20;;;;;;;20.09;61.36;99543.66;235786;1203;138707;-58
2022/07/08 14:56:27;;;;;;;3.50;2.40;;;;;;;20.09;61.86;99541.27;235712;1203;139016;-57
2022/07/08 15:01:30;;;;;;;2.90;2.20;;;;;;;20.05;61.90;99536.26;235664;1203;138824;-58
2022/07/08 15:06:33;;;;;;;6.80;2.20;;;;;;;20.01;61.94;99538.90;235698;1203;138928;-57
2022/07/08 15:11:36;;;;;;;3.80;1.80;;;;;;;20.05;62.16;99548.46;235682;1202;140163;-57
2022/07/08 15:16:41;;;;;;;2.00;1.80;;;;;;;20.02;62.15;99556.71;235823;1203;139070;-59
2022/07/08 15:21:44;;;;;;;3.30;2.10;;;;;;;20.01;62.20;99579.02;235820;1203;138436;-58
2022/07/08 15:26:47;;;;;;;5.50;2.40;;;;;;;20.04;62.25;99574.87;235715;1203;138087;-57
2022/07/08 15:31:50;;;;;;;4.00;2.90;;;;;;;20.04;62.33;99556.68;235782;1203;138773;-59
2022/07/08 15:36:53;;;;;;;5.30;3.50;;;;;;;20.01;62.31;99558.45;235745;1202;137887;-58
2022/07/08 15:41:56;;;;;;;4.60;2.20;;;;;;;19.96;62.33;99560.45;235780;1203;138688;-57
2022/07/08 15:47:01;;;;;;;4.80;2.80;;;;;;;19.97;62.42;99565.77;235772;1203;139605;-58
2022/07/08 15:52:04;;;;;;;5.90;2.70;;;;;;;19.98;62.72;99559.21;235951;1201;141256;-59
2022/07/08 15:57:07;;;;;;;6.20;3.10;;;;;;;20.10;63.08;99556.09;235780;1203;138764;-58
2022/07/08 16:02:11;;;;;;;5.10;3.00;;;;;;;20.16;63.13;99559.75;235786;1203;138634;-58
2022/07/08 16:07:14;;;;;;;4.80;3.50;;;;;;;20.17;63.15;99565.58;235790;1203;138584;-59
2022/07/08 16:12:17;;;;;;;4.10;2.90;;;;;;;20.12;63.22;99565.17;235826;1203;139189;-58
2022/07/08 16:17:20;;;;;;;3.90;2.90;;;;;;;20.13;63.33;99563.75;235825;1203;139676;-59
2022/07/08 16:22:23;;;;;;;4.90;3.00;;;;;;;20.11;63.48;99582.50;235932;1202;138837;-58
2022/07/08 16:27:27;;;;;;;4.20;3.40;;;;;;;20.18;63.60;99606.02;235776;1203;139815;-57
2022/07/08 16:32:30;;;;;;;9.30;3.30;;;;;;;20.21;63.63;99601.77;235756;1201;138902;-56
2022/07/08 16:37:33;;;;;;;3.50;2.90;;;;;;;20.17;63.40;99592.27;235697;1203;139704;-59
2022/07/08 16:42:36;;;;;;;3.20;2.10;;;;;;;20.06;63.36;99580.09;235755;1202;140853;-59
2022/07/08 16:47:39;;;;;;;6.10;1.90;;;;;;;20.00;63.24;99568.91;235750;1203;138868;-58
2022/07/08 16:52:42;;;;;;;2.90;1.80;;;;;;;19.98;63.40;99566.78;235868;1202;139018;-59
2022/07/08 16:57:45;;;;;;;4.40;2.30;;;;;;;20.03;63.54;99572.81;235763;1202;138318;-58
2022/07/08 17:02:47;;;;;;;5.40;2.70;;;;;;;20.04;63.57;99574.69;235872;1201;138885;-59
2022/07/08 17:07:51;;;;;;;5.20;2.50;;;;;;;20.06;63.52;99570.22;235722;1203;140328;-59
2022/07/08 17:12:54;;;;;;;4.40;2.80;;;;;;;19.95;63.51;99562.77;235747;1203;138972;-60
2022/07/08 17:17:58;;;;;;;3.70;2.50;;;;;;;19.90;63.44;99567.92;235705;1203;139519;-60
2022/07/08 17:23:01;;;;;;;3.90;2.80;;;;;;;19.89;63.73;99565.48;235847;1201;139286;-59
2022/07/08 17:28:04;;;;;;;3.90;2.50;;;;;;;19.91;63.85;99562.80;235810;1203;139768;-57
2022/07/08 17:33:08;;;;;;;4.10;2.30;;;;;;;19.93;64.06;99565.83;235742;1202;138742;-59
2022/07/08 17:38:11;;;;;;;5.10;2.90;;;;;;;19.90;64.05;99568.97;235769;1203;139491;-59
2022/07/08 17:43:15;;;;;;;4.70;3.30;;;;;;;19.88;64.07;99570.08;235743;1202;139009;-59
2022/07/08 17:48:18;;;;;;;4.30;3.00;;;;;;;19.92;64.11;99568.77;235694;1203;139507;-58
2022/07/08 17:53:21;;;;;;;4.30;2.80;;;;;;;20.00;64.34;99569.48;235810;1203;139500;-58
2022/07/08 17:58:23;;;;;;;5.40;2.80;;;;;;;20.10;64.29;99567.86;235793;1203;138588;-58
2022/07/08 18:03:26;;;;;;;6.10;3.30;;;;;;;20.11;64.22;99573.00;235855;1204;138782;-59
2022/07/08 18:08:30;;;;;;;8.40;3.10;;;;;;;20.07;64.09;99577.31;235709;1203;138535;-60
2022/07/08 18:13:33;;;;;;;3.90;2.90;;;;;;;20.01;64.15;99577.33;235750;1203;139430;-60
2022/07/08 18:18:37;;;;;;;3.70;2.90;;;;;;;20.03;64.18;99584.48;235671;1203;139296;-59
2022/07/08 18:23:40;;;;;;;4.00;2.60;;;;;;;19.99;64.19;99578.55;235741;1202;139354;-58
2022/07/08 18:28:43;;;;;;;6.60;2.70;;;;;;;19.92;63.93;99579.20;235617;1203;138764;-60
2022/07/08 18:33:46;;;;;;;3.30;2.00;;;;;;;19.84;64.03;99572.63;235922;1203;139353;-58
2022/07/08 18:38:50;;;;;;;4.70;2.20;;;;;;;19.82;63.93;99584.98;235710;1203;138687;-59
2022/07/08 18:43:53;;;;;;;3.10;2.40;;;;;;;19.77;63.94;99581.89;235735;1203;139128;-59
2022/07/08 18:48:56;;;;;;;4.10;2.40;;;;;;;19.76;64.00;99593.48;235749;1202;138643;-59
2022/07/08 18:53:59;;;;;;;7.80;2.80;;;;;;;19.69;63.79;99603.68;235757;1203;139795;-60
2022/07/08 18:59:02;;;;;;;4.70;2.90;;;;;;;19.65;63.94;99603.32;235753;1201;138790;-58
2022/07/08 19:04:05;;;;;;;4.20;3.70;;;;;;;19.59;63.87;99606.20;235891;1201;138369;-58
2022/07/08 19:09:09;;;;;;;4.60;3.20;;;;;;;19.55;63.83;99618.97;235711;1203;139143;-59
2022/07/08 19:14:12;;;;;;;7.20;4.20;;;;;;;19.54;64.09;99622.98;235767;1203;138886;-58
2022/07/08 19:19:15;;;;;;;5.60;2.70;;;;;;;19.52;64.13;99640.06;235714;1204;138075;-59
2022/07/08 19:24:18;;;;;;;7.30;2.70;;;;;;;19.49;64.17;99649.02;235758;1203;138627;-59
2022/07/08 19:29:21;;;;;;;6.00;2.30;;;;;;;19.42;64.15;99638.29;235741;1203;139216;-58
2022/07/08 19:34:24;;;;;;;3.20;2.00;;;;;;;19.33;63.94;99641.63;235839;1203;138274;-60
2022/07/08 19:39:27;;;;;;;4.70;2.10;;;;;;;19.29;63.97;99646.85;235761;1204;139834;-59
2022/07/08 19:44:30;;;;;;;3.70;2.20;;;;;;;19.30;64.12;99646.23;235801;1203;138621;-57
2022/07/08 19:49:33;;;;;;;3.00;2.10;;;;;;;19.31;64.02;99651.15;235751;1202;138717;-59
2022/07/08 19:54:36;;;;;;;6.00;2.40;;;;;;;19.26;63.92;99657.52;235759;1203;138653;-59
2022/07/08 19:59:39;;;;;;;3.30;2.30;;;;;;;19.18;63.97;99660.75;235715;1202;138454;-58
2022/07/08 20:04:42;;;;;;;6.40;2.30;;;;;;;19.04;63.84;99656.05;235790;1202;138343;-60
2022/07/08 20:09:46;;;;;;;5.80;2.40;;;;;;;18.99;64.00;99663.52;235866;1203;139139;-58
2022/07/08 20:14:49;;;;;;;4.60;2.90;;;;;;;19.01;64.18;99662.98;235715;1203;139105;-57
2022/07/08 20:19:52;;;;;;;4.30;2.60;;;;;;;19.02;64.30;99662.76;235747;1203;139290;-59
2022/07/08 20:24:55;;;;;;;3.90;2.60;;;;;;;19.05;64.34;99662.84;235732;1202;138738;-59
2022/07/08 20:29:58;;;;;;;6.30;2.90;;;;;;;19.05;64.29;99662.64;235722;1203;139262;-59
2022/07/08 20:35:01;;;;;;;6.40;3.00;;;;;;;19.05;64.30;99659.54;235676;1203;138260;-58
2022/07/08 20:40:06;;;;;;;4.10;2.10;;;;;;;19.07;64.19;99663.37;235825;1201;139917;-59
2022/07/08 20:45:11;;;;;;;6.00;2.50;;;;;;;19.09;64.39;99663.48;235671;1203;138977;-59
2022/07/08 20:50:16;;;;;;;5.00;2.60;;;;;;;19.12;64.39;99665.40;235711;1202;138822;-58
2022/07/08 20:55:19;;;;;;;6.20;2.60;;;;;;;19.14;64.51;99665.11;235740;1203;140206;-57
2022/07/08 21:00:22;;;;;;;8.50;3.10;;;;;;;19.08;64.34;99666.09;235802;1202;139117;-57
2022/07/08 21:05:25;;;;;;;8.50;2.60;;;;;;;19.01;64.15;99666.36;235749;1201;139976;-56
2022/07/08 21:10:28;;;;;;;6.60;3.10;;;;;;;18.99;64.24;99662.46;235804;1202;139585;-57
2022/07/08 21:15:32;;;;;;;6.20;2.70;;;;;;;19.00;64.30;99661.67;235630;1203;139757;-59
2022/07/08 21:20:36;;;;;;;9.20;4.10;;;;;;;18.99;64.55;99659.95;235722;1203;139055;-57
2022/07/08 21:25:39;;;;;;;6.20;3.10;;;;;;;18.99;64.40;99662.05;235744;1202;139533;-59
2022/07/08 21:30:43;;;;;;;8.70;6.40;;;;;;;18.91;64.45;99656.63;235767;1203;139488;-59
2022/07/08 21:35:46;;;;;;;12.20;3.10;;;;;;;18.85;64.45;99663.28;235735;1203;138698;-59
2022/07/08 21:40:49;;;;;;;7.20;3.10;;;;;;;18.83;64.26;99665.22;235755;1203;139940;-59
2022/07/08 21:45:52;;;;;;;10.60;3.20;;;;;;;18.83;64.33;99663.50;235783;1202;139046;-59
2022/07/08 21:50:55;;;;;;;4.70;3.10;;;;;;;18.83;64.54;99666.29;235698;1204;139237;-58
2022/07/08 21:55:58;;;;;;;7.00;3.60;;;;;;;18.77;64.19;99663.65;235709;1203;138495;-56
2022/07/08 22:01:01;;;;;;;8.30;3.40;;;;;;;18.68;64.22;99663.46;235853;1201;139380;-58
2022/07/08 22:06:04;;;;;;;7.30;3.10;;;;;;;18.61;63.98;99656.67;235443;1201;138654;-57
2022/07/08 22:11:07;;;;;;;6.70;2.50;;;;;;;18.54;63.95;99656.72;235774;1203;140938;-58
2022/07/08 22:16:10;;;;;;;7.30;2.60;;;;;;;18.55;64.04;99654.71;235940;1203;139147;-55
2022/07/08 22:21:13;;;;;;;7.90;3.10;;;;;;;18.54;63.84;99645.95;235766;1203;139120;-58
2022/07/08 22:26:16;;;;;;;6.00;2.40;;;;;;;18.55;63.89;99643.92;235814;1203;140819;-58
2022/07/08 22:31:21;;;;;;;12.00;3.00;;;;;;;18.50;63.75;99642.39;235957;1201;138231;-59
2022/07/08 22:36:25;;;;;;;7.40;2.70;;;;;;;18.46;63.68;99648.45;235828;1202;139059;-58
2022/07/08 22:41:27;;;;;;;9.30;2.40;;;;;;;18.39;63.49;99647.77;235788;1203;138751;-58
2022/07/08 22:46:30;;;;;;;6.00;2.50;;;;;;;18.39;63.38;99655.70;235979;1200;139632;-56
2022/07/08 22:51:34;;;;;;;6.50;2.50;;;;;;;18.42;63.51;99658.88;235805;1202;138914;-58
2022/07/08 22:56:37;;;;;;;7.30;2.60;;;;;;;18.42;63.24;99663.88;235664;1203;139233;-57
2022/07/08 23:01:40;;;;;;;6.70;2.30;;;;;;;18.37;63.44;99659.66;235729;1202;138591;-59
2022/07/08 23:06:43;;;;;;;11.80;2.60;;;;;;;18.30;63.21;99660.25;235785;1203;138518;-58
2022/07/08 23:11:46;;;;;;;8.70;2.80;;;;;;;18.26;63.48;99665.42;235813;1203;139282;-56
2022/07/08 23:16:49;;;;;;;6.80;2.10;;;;;;;18.26;63.18;99673.48;235832;1201;139679;-58
2022/07/08 23:21:52;;;;;;;4.90;2.20;;;;;;;18.25;63.42;99678.95;235899;1201;138898;-58